Time;durP1;ratioP1;P1;durP2;ratioP2;P2;SDS_P1;SDS_P2;PMS_P1;PMS_P2;Temp;Humidity;BMP_temperature;BMP_pressure;BME280_temperature;BME280_humidity;BME280_pressure;Samples;Min_cycle;Max_cycle;Signal;HPM_P1;HPM_P2
2023/09/26 00:00:28;;;;;;;;;;;18.90;78.90;;;19.07;49.94;99268.78;5062610;27;113673;-80
2023/09/26 00:02:54;;;;;;;;;;;18.80;78.90;;;19.04;49.93;99263.91;5004539;28;113679;-80
2023/09/26 00:05:23;;;;;;;;;;;18.80;79.10;;;19.02;49.93;99262.63;4977748;28;123329;-82
2023/09/26 00:07:49;;;;;;;;;;;18.80;79.30;;;18.98;50.19;99259.75;4989290;28;123977;-83
2023/09/26 00:10:16;;;;;;;;;;;18.80;79.50;;;18.96;50.18;99254.50;5005295;28;115295;-83
2023/09/26 00:12:42;;;;;;;;;;;18.70;79.50;;;18.94;50.07;99253.22;4989083;28;114895;-83
2023/09/26 00:15:11;;;;;;;;;;;18.70;79.70;;;18.91;50.83;99259.53;5002842;28;124148;-83
2023/09/26 00:17:37;;;;;;;;;;;18.70;79.80;;;18.89;50.27;99245.91;4976210;28;125411;-84
2023/09/26 00:20:27;;;;;;;;;;;18.70;80.00;;;18.87;50.37;99253.84;4995367;28;114366;-83
2023/09/26 00:22:53;;;;;;;;;;;18.70;80.10;;;18.81;50.27;99260.88;4998968;28;113627;-83
2023/09/26 00:25:19;;;;;;;;;;;18.60;80.20;;;18.79;50.26;99263.22;4979556;28;123687;-83
2023/09/26 00:27:46;;;;;;;;;;;18.60;80.30;;;18.77;50.45;99255.16;4994129;28;124481;-84
2023/09/26 00:30:12;;;;;;;;;;;18.60;80.50;;;18.76;50.51;99247.13;4971997;28;113465;-82
2023/09/26 00:32:38;;;;;;;;;;;18.50;80.50;;;18.73;50.16;99254.22;5006357;28;113920;-82
2023/09/26 00:35:08;;;;;;;;;;;18.50;80.70;;;18.72;50.36;99252.56;4995900;28;124014;-84
2023/09/26 00:37:34;;;;;;;;;;;18.50;80.80;;;18.69;50.67;99255.28;4996341;28;125455;-82
2023/09/26 00:40:01;;;;;;;;;;;18.50;81.00;;;18.68;50.75;99257.28;5015835;27;114405;-82
2023/09/26 00:42:28;;;;;;;;;;;18.40;81.10;;;18.65;50.69;99257.19;5014908;27;113830;-82
2023/09/26 00:44:55;;;;;;;;;;;18.40;81.20;;;18.63;50.81;99254.72;5036017;27;124018;-84
2023/09/26 00:47:21;;;;;;;;;;;18.40;81.40;;;18.61;51.10;99262.66;5005655;27;124255;-83
2023/09/26 00:49:48;;;;;;;;;;;18.40;81.50;;;18.58;50.84;99251.38;5023562;27;114897;-83
2023/09/26 00:52:14;;;;;;;;;;;18.30;81.60;;;18.57;50.77;99246.94;5030471;27;113850;-85
2023/09/26 00:54:41;;;;;;;;;;;18.30;81.80;;;18.52;51.18;99254.41;5028396;27;124238;-82
2023/09/26 00:57:07;;;;;;;;;;;18.30;81.90;;;18.48;51.21;99249.88;5029511;27;124338;-82
2023/09/26 00:59:33;;;;;;;;;;;18.30;82.10;;;18.45;51.21;99248.59;5012333;28;114302;-84
2023/09/26 01:02:00;;;;;;;;;;;18.30;82.20;;;18.43;51.25;99256.53;5060289;27;114862;-85
2023/09/26 01:04:27;;;;;;;;;;;18.20;82.30;;;18.38;51.36;99245.59;5012077;28;123584;-83
2023/09/26 01:06:53;;;;;;;;;;;18.20;82.30;;;18.37;51.36;99257.13;5027022;27;122923;-84
2023/09/26 01:09:19;;;;;;;;;;;18.20;82.50;;;18.35;51.45;99251.06;5035178;27;114476;-85
2023/09/26 01:11:46;;;;;;;;;;;18.10;82.50;;;18.31;51.53;99253.75;5027250;27;113516;-85
2023/09/26 01:14:12;;;;;;;;;;;18.10;82.60;;;18.29;51.57;99253.28;5026950;28;124226;-85
2023/09/26 01:16:41;;;;;;;;;;;18.10;82.90;;;18.27;51.95;99247.25;5027873;27;123715;-85
2023/09/26 01:19:07;;;;;;;;;;;18.10;82.90;;;18.24;51.70;99250.75;5028019;27;114479;-85
2023/09/26 01:21:36;;;;;;;;;;;18.00;83.00;;;18.24;51.70;99247.94;5027371;27;113790;-84
2023/09/26 01:24:05;;;;;;;;;;;18.00;83.20;;;18.22;51.80;99251.09;5020684;27;123891;-84
2023/09/26 01:26:37;;;;;;;;;;;18.00;83.30;;;18.21;51.71;99254.25;5029977;27;123689;-85
2023/09/26 01:29:06;;;;;;;;;;;18.00;83.50;;;18.18;51.74;99250.16;5027583;27;114874;-85
2023/09/26 01:31:36;;;;;;;;;;;17.90;83.50;;;18.16;51.91;99254.50;5028391;27;113914;-82
2023/09/26 01:34:06;;;;;;;;;;;17.90;83.70;;;18.11;52.09;99249.97;5032983;27;124139;-85
2023/09/26 01:36:32;;;;;;;;;;;17.90;83.80;;;18.08;52.15;99254.28;5026502;27;124398;-85
2023/09/26 01:38:58;;;;;;;;;;;17.90;83.90;;;18.05;52.35;99249.41;5031147;27;114534;-85
2023/09/26 01:41:26;;;;;;;;;;;17.90;84.10;;;18.03;52.38;99248.13;5027988;28;113598;-82
2023/09/26 01:43:54;;;;;;;;;;;17.80;84.20;;;18.02;52.27;99246.47;5063430;27;124251;-85
2023/09/26 01:46:21;;;;;;;;;;;17.80;84.30;;;18.00;52.28;99249.63;5029901;27;124585;-83
2023/09/26 01:48:50;;;;;;;;;;;17.80;84.40;;;18.00;52.34;99249.63;5032401;27;115472;-85
2023/09/26 01:51:21;;;;;;;;;;;17.80;84.50;;;17.97;52.30;99250.31;5030881;28;114858;-85
2023/09/26 01:53:48;;;;;;;;;;;17.70;84.60;;;17.97;52.33;99250.31;5032127;27;123268;-85
2023/09/26 01:56:14;;;;;;;;;;;17.70;84.60;;;17.94;52.37;99251.00;5030719;27;124093;-84
2023/09/26 01:58:40;;;;;;;;;;;17.70;84.70;;;17.93;52.32;99254.19;5031355;28;114367;-83
2023/09/26 02:01:09;;;;;;;;;;;17.70;84.80;;;17.91;52.50;99239.72;5030546;27;113652;-85
2023/09/26 02:03:35;;;;;;;;;;;17.70;84.90;;;17.87;52.43;99237.63;5048858;27;123024;-84
2023/09/26 02:06:01;;;;;;;;;;;17.60;84.90;;;17.85;52.61;99236.34;5033398;27;123909;-84
2023/09/26 02:08:28;;;;;;;;;;;17.60;85.00;;;17.84;52.57;99240.34;5030524;27;115032;-84
2023/09/26 02:10:54;;;;;;;;;;;17.60;85.10;;;17.83;52.57;99245.09;5032722;27;113842;-83
2023/09/26 02:13:20;;;;;;;;;;;17.60;85.30;;;17.82;52.55;99237.06;5029346;27;124260;-83
2023/09/26 02:15:47;;;;;;;;;;;17.60;85.30;;;17.81;52.58;99243.78;5030774;28;124633;-83
2023/09/26 02:18:13;;;;;;;;;;;17.50;85.30;;;17.79;52.70;99234.97;5029644;27;114368;-83
2023/09/26 02:20:39;;;;;;;;;;;17.50;85.40;;;17.76;52.69;99236.44;5063472;27;113582;-85
2023/09/26 02:23:05;;;;;;;;;;;17.50;85.50;;;17.72;52.80;99238.31;5053559;27;124093;-84
2023/09/26 02:25:32;;;;;;;;;;;17.50;85.60;;;17.70;52.69;99235.03;5024653;27;124859;-83
2023/09/26 02:27:58;;;;;;;;;;;17.50;85.60;;;17.69;52.81;99238.19;5016253;27;114285;-84
2023/09/26 02:30:26;;;;;;;;;;;17.40;85.80;;;17.67;52.85;99233.75;5031112;27;113640;-85
2023/09/26 02:32:55;;;;;;;;;;;17.40;85.80;;;17.64;52.95;99230.84;5015081;27;123401;-83
2023/09/26 02:35:24;;;;;;;;;;;17.40;85.90;;;17.62;52.88;99239.59;5070238;27;123830;-84
2023/09/26 02:37:53;;;;;;;;;;;17.40;86.00;;;17.59;52.89;99239.47;5036380;27;115356;-84
2023/09/26 02:40:19;;;;;;;;;;;17.40;86.10;;;17.56;52.98;99234.56;5030945;28;115081;-83
2023/09/26 02:42:45;;;;;;;;;;;17.40;86.10;;;17.50;53.05;99228.41;5031334;27;124502;-83
2023/09/26 02:45:13;;;;;;;;;;;17.30;86.10;;;17.44;53.02;99227.00;5028172;28;124674;-82
2023/09/26 02:47:40;;;;;;;;;;;17.30;86.20;;;17.37;53.18;99221.97;5032253;28;113746;-83
2023/09/26 02:50:07;;;;;;;;;;;17.20;86.20;;;17.32;53.38;99225.00;5028429;27;113596;-85
2023/09/26 02:52:33;;;;;;;;;;;17.10;86.20;;;17.28;53.56;99223.28;5029023;27;123456;-83
2023/09/26 02:55:00;;;;;;;;;;;17.10;86.50;;;17.23;53.65;99225.13;5049029;27;125115;-84
2023/09/26 02:57:27;;;;;;;;;;;17.00;86.60;;;17.17;53.62;99223.72;5041824;27;114596;-86
2023/09/26 02:59:53;;;;;;;;;;;17.00;86.70;;;17.12;53.80;99221.13;5054720;27;113785;-85
2023/09/26 03:02:19;;;;;;;;;;;16.90;86.80;;;17.11;53.86;99224.25;5009672;28;123081;-85
2023/09/26 03:04:48;;;;;;;;;;;16.90;86.90;;;17.07;54.06;99224.16;5020006;27;123951;-86
2023/09/26 03:07:15;;;;;;;;;;;16.90;87.50;;;16.98;54.12;99220.66;5064205;27;114514;-86
2023/09/26 03:09:41;;;;;;;;;;;16.80;87.50;;;16.94;54.36;99226.09;5031250;27;113691;-85
2023/09/26 03:12:07;;;;;;;;;;;16.80;87.50;;;16.93;54.59;99218.06;5029329;27;124239;-86
2023/09/26 03:14:34;;;;;;;;;;;16.80;87.60;;;16.95;54.22;99210.16;5027919;27;124080;-84
2023/09/26 03:17:04;;;;;;;;;;;16.80;87.80;;;16.96;54.42;99217.38;5027175;27;114545;-84
2023/09/26 03:19:30;;;;;;;;;;;16.80;87.90;;;16.97;54.37;99219.00;5028856;27;113921;-86
2023/09/26 03:21:56;;;;;;;;;;;16.70;88.00;;;16.98;54.39;99220.66;5028002;27;124125;-86
2023/09/26 03:24:22;;;;;;;;;;;16.70;88.10;;;16.99;54.32;99227.84;5010381;27;123815;-84
2023/09/26 03:26:49;;;;;;;;;;;16.80;88.30;;;16.99;54.45;99227.84;5028733;27;115687;-83
2023/09/26 03:29:15;;;;;;;;;;;16.80;88.40;;;16.98;54.45;99231.81;5061720;27;114864;-83
2023/09/26 03:31:41;;;;;;;;;;;16.70;88.50;;;16.96;54.50;99231.34;5030326;27;123728;-85
2023/09/26 03:34:09;;;;;;;;;;;16.70;88.60;;;16.91;54.46;99225.97;5032055;27;124086;-85
2023/09/26 03:36:36;;;;;;;;;;;16.70;88.60;;;16.88;54.65;99238.63;5032286;27;114146;-86
2023/09/26 03:39:06;;;;;;;;;;;16.70;88.70;;;16.83;54.36;99230.47;5029975;27;113731;-84
2023/09/26 03:41:33;;;;;;;;;;;16.70;88.70;;;16.82;54.69;99233.59;5028329;27;124870;-86
2023/09/26 03:43:59;;;;;;;;;;;16.60;88.70;;;16.80;54.89;99230.34;5062017;27;124348;-83
2023/09/26 03:46:25;;;;;;;;;;;16.60;88.80;;;16.73;55.11;99225.28;5028646;27;114306;-88
2023/09/26 03:48:52;;;;;;;;;;;16.60;89.20;;;16.67;55.08;99221.91;5027637;28;113850;-83
2023/09/26 03:51:18;;;;;;;;;;;16.50;89.00;;;16.66;55.24;99225.84;5028271;27;124873;-87
2023/09/26 03:53:44;;;;;;;;;;;16.50;89.10;;;16.65;55.11;99218.63;5028476;27;124337;-83
2023/09/26 03:56:11;;;;;;;;;;;16.50;89.20;;;16.65;55.01;99217.81;5019805;27;114533;-83
2023/09/26 03:58:40;;;;;;;;;;;16.50;89.50;;;16.64;55.18;99221.78;5042350;27;113685;-84
2023/09/26 04:01:12;;;;;;;;;;;16.40;89.30;;;16.64;55.22;99214.22;5028745;27;124327;-85
2023/09/26 04:03:42;;;;;;;;;;;16.40;89.40;;;16.66;54.90;99227.84;5013375;27;122590;-84
2023/09/26 04:06:09;;;;;;;;;;;16.40;89.50;;;16.66;55.00;99220.28;5022791;27;114663;-84
2023/09/26 04:08:36;;;;;;;;;;;16.40;89.40;;;16.69;54.95;99229.94;5038312;27;114323;-83
2023/09/26 04:11:02;;;;;;;;;;;16.40;89.60;;;16.69;54.73;99219.59;5035245;27;124161;-82
2023/09/26 04:13:28;;;;;;;;;;;16.40;89.60;;;16.69;55.11;99222.38;5038652;27;123133;-85
2023/09/26 04:15:55;;;;;;;;;;;16.40;89.70;;;16.70;54.81;99224.00;5031927;27;115951;-85
2023/09/26 04:18:22;;;;;;;;;;;16.40;89.70;;;16.69;54.87;99221.56;5065853;27;114752;-85
2023/09/26 04:20:51;;;;;;;;;;;16.40;90.10;;;16.68;54.86;99215.16;5015256;27;123769;-83
2023/09/26 04:23:18;;;;;;;;;;;16.40;89.80;;;16.68;55.08;99211.53;5066144;27;124195;-84
2023/09/26 04:25:44;;;;;;;;;;;16.40;89.80;;;16.65;54.92;99207.47;5009003;27;114438;-83
2023/09/26 04:28:10;;;;;;;;;;;16.40;89.90;;;16.64;55.08;99208.63;5029229;27;113777;-83
2023/09/26 04:30:38;;;;;;;;;;;16.40;89.90;;;16.64;55.21;99208.63;5024895;27;124043;-86
2023/09/26 04:33:08;;;;;;;;;;;16.30;90.00;;;16.63;55.15;99215.38;5028957;27;123204;-85
2023/09/26 04:35:35;;;;;;;;;;;16.40;90.00;;;16.57;54.97;99211.97;5058715;27;114789;-83
2023/09/26 04:38:01;;;;;;;;;;;16.30;90.00;;;16.50;55.32;99210.91;5028527;27;114176;-85
2023/09/26 04:40:28;;;;;;;;;;;16.30;90.00;;;16.41;55.03;99210.97;5025934;27;124210;-85
2023/09/26 04:42:59;;;;;;;;;;;16.20;90.00;;;16.39;55.47;99201.31;5022899;27;123048;-80
2023/09/26 04:45:29;;;;;;;;;;;16.20;90.00;;;16.38;55.37;99213.63;5028265;27;114589;-83
2023/09/26 04:48:01;;;;;;;;;;;16.20;90.10;;;16.36;55.48;99211.16;5019855;27;113921;-84
2023/09/26 04:50:28;;;;;;;;;;;16.10;90.10;;;16.36;55.48;99216.75;5026121;27;124322;-85
2023/09/26 04:52:56;;;;;;;;;;;16.10;90.10;;;16.32;55.54;99215.81;5027576;27;124625;-85
2023/09/26 04:55:26;;;;;;;;;;;16.10;90.10;;;16.28;55.66;99215.69;5026195;27;114345;-84
2023/09/26 04:57:52;;;;;;;;;;;16.10;90.10;;;16.27;55.59;99216.00;5060160;27;114076;-85
2023/09/26 05:00:22;;;;;;;;;;;16.10;90.20;;;16.29;55.70;99211.72;5027250;27;124490;-85
2023/09/26 05:02:53;;;;;;;;;;;16.10;90.20;;;16.30;55.78;99210.56;5027783;27;124030;-85
2023/09/26 05:05:20;;;;;;;;;;;16.10;90.30;;;16.31;55.70;99211.41;5028276;27;114557;-85
2023/09/26 05:07:46;;;;;;;;;;;16.10;90.30;;;16.31;55.55;99209.44;5026656;27;114881;-80
2023/09/26 05:10:13;;;;;;;;;;;16.00;90.30;;;16.33;55.69;99197.91;5029206;27;123984;-85
2023/09/26 05:12:42;;;;;;;;;;;16.10;90.40;;;16.34;55.90;99205.94;5028534;27;124722;-85
2023/09/26 05:15:13;;;;;;;;;;;16.10;90.50;;;16.40;56.05;99212.13;5059727;27;114576;-84
2023/09/26 05:17:50;;;;;;;;;;;16.10;90.70;;;16.44;55.82;99204.72;5029560;27;113705;-85
2023/09/26 05:20:17;;;;;;;;;;;16.10;90.70;;;16.48;55.64;99218.81;5031916;27;124065;-84
2023/09/26 05:22:47;;;;;;;;;;;16.10;90.70;;;16.50;55.80;99216.50;5022761;27;124814;-82
2023/09/26 05:25:16;;;;;;;;;;;16.10;90.70;;;16.51;55.91;99218.13;5023585;27;114583;-80
2023/09/26 05:27:45;;;;;;;;;;;16.20;90.70;;;16.52;55.61;99225.31;5031283;27;113839;-83
2023/09/26 05:30:15;;;;;;;;;;;16.20;90.70;;;16.54;55.69;99225.78;5019306;28;123429;-80
2023/09/26 05:32:42;;;;;;;;;;;16.20;90.70;;;16.56;55.52;99220.69;5038700;27;124190;-85
2023/09/26 05:35:09;;;;;;;;;;;16.20;90.70;;;16.54;55.59;99215.44;5040220;27;114554;-85
2023/09/26 05:37:37;;;;;;;;;;;16.20;90.70;;;16.52;55.72;99219.72;5039272;27;114194;-84
2023/09/26 05:40:07;;;;;;;;;;;16.20;90.70;;;16.50;55.50;99227.66;5031134;27;123941;-84
2023/09/26 05:42:36;;;;;;;;;;;16.20;90.70;;;16.48;55.55;99218.81;5040703;27;123071;-84
2023/09/26 05:45:04;;;;;;;;;;;16.20;90.70;;;16.44;55.78;99229.00;5032803;27;114372;-85
2023/09/26 05:47:30;;;;;;;;;;;16.20;90.70;;;16.39;55.70;99223.63;5030957;28;113782;-83
2023/09/26 05:49:56;;;;;;;;;;;16.10;90.70;;;16.38;56.03;99222.00;5065967;27;124405;-85
2023/09/26 05:52:23;;;;;;;;;;;16.10;90.70;;;16.39;56.13;99226.41;5038728;27;124662;-85
2023/09/26 05:54:49;;;;;;;;;;;16.10;90.70;;;16.37;55.75;99223.97;5028550;27;115101;-83
2023/09/26 05:57:15;;;;;;;;;;;16.10;90.70;;;16.34;55.90;99225.47;5028954;27;114924;-83
2023/09/26 05:59:44;;;;;;;;;;;16.10;90.70;;;16.33;56.20;99229.44;5049033;27;124308;-82
2023/09/26 06:02:13;;;;;;;;;;;16.10;90.90;;;16.33;56.25;99225.81;5043865;27;123245;-85
2023/09/26 06:04:45;;;;;;;;;;;16.10;91.00;;;16.32;56.50;99222.19;5030069;27;114355;-86
2023/09/26 06:07:13;;;;;;;;;;;16.10;91.10;;;16.32;56.59;99216.63;5027721;27;113182;-83
2023/09/26 06:09:39;;;;;;;;;;;16.10;90.90;;;16.39;56.04;99226.41;5026910;27;123267;-85
2023/09/26 06:12:06;;;;;;;;;;;16.20;90.90;;;16.41;56.03;99224.09;5030288;27;123864;-90
2023/09/26 06:14:35;;;;;;;;;;;16.20;90.80;;;16.50;56.23;99222.06;5031496;27;114387;-83
2023/09/26 06:17:01;;;;;;;;;;;16.30;91.00;;;16.58;56.43;99218.38;5051445;27;113578;-85
2023/09/26 06:19:30;;;;;;;;;;;16.30;91.10;;;16.66;56.15;99225.03;5031887;27;124894;-88
2023/09/26 06:21:57;;;;;;;;;;;16.40;91.20;;;16.72;55.93;99218.09;5026544;27;122474;-87
2023/09/26 06:24:23;;;;;;;;;;;16.40;91.10;;;16.80;55.93;99233.16;5017968;27;114356;-85
2023/09/26 06:26:52;;;;;;;;;;;16.50;91.00;;;16.87;55.77;99220.28;5031804;27;112867;-84
2023/09/26 06:29:18;;;;;;;;;;;16.60;91.00;;;16.95;55.55;99222.16;5030354;27;123482;-82
2023/09/26 06:31:45;;;;;;;;;;;16.60;90.80;;;17.05;55.27;99226.47;5029042;27;124537;-83
2023/09/26 06:34:11;;;;;;;;;;;16.70;90.80;;;17.11;54.99;99224.25;5037108;27;114470;-86
2023/09/26 06:36:37;;;;;;;;;;;16.80;90.70;;;17.16;54.85;99226.84;5031835;27;113885;-86
2023/09/26 06:39:09;;;;;;;;;;;16.80;90.60;;;17.21;54.73;99230.22;5033825;27;124658;-83
2023/09/26 06:41:35;;;;;;;;;;;16.80;90.50;;;17.30;54.56;99229.31;5022900;27;123926;-87
2023/09/26 06:44:01;;;;;;;;;;;16.90;90.80;;;17.37;54.36;99224.78;5021003;27;115300;-85
2023/09/26 06:46:28;;;;;;;;;;;17.00;90.50;;;17.45;54.51;99235.03;5030125;27;113964;-86
2023/09/26 06:48:55;;;;;;;;;;;17.00;90.40;;;17.51;54.22;99237.59;5028167;27;124880;-82
2023/09/26 06:51:21;;;;;;;;;;;17.10;90.30;;;17.50;54.06;99224.81;5024935;27;124042;-80
2023/09/26 06:53:48;;;;;;;;;;;17.10;90.20;;;17.52;54.01;99236.44;5033093;27;113451;-78
2023/09/26 06:56:14;;;;;;;;;;;17.10;90.10;;;17.57;53.86;99237.03;5029469;27;113808;-81
2023/09/26 06:58:41;;;;;;;;;;;17.20;90.20;;;17.65;53.70;99230.50;5034498;27;124186;-77
2023/09/26 07:01:17;;;;;;;;;;;17.30;90.10;;;17.71;53.45;99231.09;5023005;27;125010;-82
2023/09/26 07:03:44;;;;;;;;;;;17.30;90.10;;;17.70;53.19;99235.03;5022192;27;114498;-80
2023/09/26 07:06:12;;;;;;;;;;;17.30;90.10;;;17.75;53.51;99228.41;5043512;27;113816;-81
2023/09/26 07:08:40;;;;;;;;;;;17.30;90.10;;;17.77;53.43;99234.47;5037583;27;124358;-84
2023/09/26 07:11:08;;;;;;;;;;;17.30;90.10;;;17.82;53.44;99225.88;5032575;27;123974;-81
2023/09/26 07:13:37;;;;;;;;;;;17.40;90.10;;;17.89;53.46;99226.09;5028796;27;114103;-82
2023/09/26 07:16:04;;;;;;;;;;;17.40;90.00;;;17.89;53.09;99226.09;5019200;27;113796;-84
2023/09/26 07:18:36;;;;;;;;;;;17.40;90.00;;;17.92;53.08;99222.63;5006027;28;123198;-83
2023/09/26 07:21:05;;;;;;;;;;;17.50;89.90;;;17.91;52.83;99226.56;5053044;27;123077;-82
2023/09/26 07:23:33;;;;;;;;;;;17.50;89.80;;;17.90;52.95;99219.34;5022124;27;115107;-83
2023/09/26 07:26:20;;;;;;;;;;;17.50;89.60;;;17.85;52.90;99225.19;5029493;27;114378;-86
2023/09/26 07:28:50;;;;;;;;;;;17.40;89.50;;;17.83;52.95;99221.91;5016261;27;124257;-84
2023/09/26 07:31:18;;;;;;;;;;;17.40;89.60;;;17.79;52.91;99227.41;5026981;27;124557;-80
2023/09/26 07:33:45;;;;;;;;;;;17.40;89.60;;;17.80;53.12;99217.03;5010037;28;114494;-79
2023/09/26 07:36:14;;;;;;;;;;;17.40;89.80;;;17.81;53.16;99221.44;5024362;27;114650;-82
2023/09/26 07:38:41;;;;;;;;;;;17.30;89.90;;;17.82;53.03;99231.47;5061031;27;124147;-84
2023/09/26 07:41:07;;;;;;;;;;;17.30;89.90;;;17.86;53.07;99224.81;5014542;28;123978;-84
2023/09/26 07:43:33;;;;;;;;;;;17.30;90.00;;;17.93;52.99;99234.59;5027104;27;114755;-80
2023/09/26 07:46:07;;;;;;;;;;;17.40;90.00;;;18.02;52.77;99230.50;5029202;27;113752;-82
2023/09/26 07:48:34;;;;;;;;;;;17.50;90.00;;;18.07;52.71;99230.25;5025581;27;124294;-83
2023/09/26 07:51:01;;;;;;;;;;;17.50;89.80;;;18.14;52.84;99228.88;5019252;27;124105;-79
2023/09/26 07:53:27;;;;;;;;;;;17.60;89.80;;;18.22;52.67;99225.13;5030069;27;113731;-80
2023/09/26 07:55:56;;;;;;;;;;;17.70;89.70;;;18.30;52.52;99222.19;5030552;27;114156;-83
2023/09/26 07:58:22;;;;;;;;;;;17.80;89.60;;;18.40;52.49;99222.84;5025610;27;124405;-81
2023/09/26 08:00:49;;;;;;;;;;;17.90;89.60;;;18.45;52.27;99226.19;5033776;27;123980;-82
2023/09/26 08:03:15;;;;;;;;;;;17.90;89.30;;;18.49;52.15;99226.31;5038193;27;113786;-83
2023/09/26 08:05:41;;;;;;;;;;;18.00;89.40;;;18.51;52.11;99224.81;5011051;27;112919;-81
2023/09/26 08:08:08;;;;;;;;;;;19.40;90.20;;;18.52;52.11;99220.03;5030729;27;125615;-83
2023/09/26 08:10:38;;;;;;;;;;;18.00;89.20;;;18.59;52.08;99225.00;5044107;27;123803;-83
2023/09/26 08:13:07;;;;;;;;;;;18.10;89.20;;;18.66;52.06;99220.41;5038997;27;114693;-84
2023/09/26 08:15:36;;;;;;;;;;;18.20;89.20;;;18.74;51.82;99210.25;5026416;27;113766;-83
2023/09/26 08:18:03;;;;;;;;;;;18.20;89.10;;;18.79;51.82;99221.22;5027749;27;124240;-80
2023/09/26 08:20:30;;;;;;;;;;;18.30;89.10;;;18.83;51.81;99215.72;5024811;27;123587;-82
2023/09/26 08:22:57;;;;;;;;;;;18.30;89.10;;;18.89;51.89;99220.72;5021534;27;115641;-83
2023/09/26 08:25:23;;;;;;;;;;;18.30;88.90;;;18.96;51.68;99218.09;5012799;27;114910;-85
2023/09/26 08:27:52;;;;;;;;;;;18.40;88.90;;;19.02;51.60;99212.22;5019202;27;124719;-84
2023/09/26 08:30:20;;;;;;;;;;;18.50;88.90;;;19.06;51.64;99218.75;5026165;27;124416;-84
2023/09/26 08:32:47;;;;;;;;;;;18.50;88.80;;;19.13;51.61;99221.75;5030487;27;114640;-82
2023/09/26 08:35:13;;;;;;;;;;;18.60;88.90;;;19.19;51.52;99214.69;5027257;27;115492;-83
2023/09/26 08:37:40;;;;;;;;;;;18.60;88.90;;;19.26;51.47;99208.47;5036505;27;123564;-82
2023/09/26 08:40:11;;;;;;;;;;;18.70;88.80;;;19.33;51.27;99209.47;5028187;27;123817;-90
2023/09/26 08:42:41;;;;;;;;;;;18.80;88.80;;;19.42;51.15;99212.91;5027663;27;115051;-81
2023/09/26 08:45:07;;;;;;;;;;;18.80;88.70;;;19.50;51.13;99204.66;5062881;27;113900;-80
2023/09/26 08:47:37;;;;;;;;;;;18.90;88.50;;;19.50;50.95;99202.66;5026212;27;124899;-82
2023/09/26 08:50:08;;;;;;;;;;;19.00;88.20;;;19.50;50.75;99204.66;5026157;27;124735;-76
2023/09/26 08:52:35;;;;;;;;;;;19.00;88.10;;;19.53;51.07;99198.34;5069086;27;115162;-83
2023/09/26 08:55:02;;;;;;;;;;;19.00;88.10;;;19.56;50.79;99211.66;5003229;28;113036;-78
2023/09/26 08:57:32;;;;;;;;;;;19.10;88.20;;;19.59;50.76;99213.72;5016248;28;124327;-81
2023/09/26 09:00:03;;;;;;;;;;;19.10;88.20;;;19.62;50.94;99204.56;5030159;27;124126;-80
2023/09/26 09:02:32;;;;;;;;;;;19.10;88.00;;;19.65;50.87;99206.66;5031637;27;115228;-80
2023/09/26 09:04:58;;;;;;;;;;;19.10;88.00;;;19.70;50.88;99206.41;5036699;27;113773;-81
2023/09/26 09:07:27;;;;;;;;;;;19.20;88.10;;;19.73;50.95;99200.06;5027998;27;124904;-79
2023/09/26 09:10:13;;;;;;;;;;;19.20;88.00;;;19.74;50.84;99196.06;5015945;27;124228;-78
2023/09/26 09:12:41;;;;;;;;;;;19.30;88.10;;;19.76;50.86;99198.53;5022094;27;115944;-78
2023/09/26 09:15:22;;;;;;;;;;;19.30;88.10;;;19.79;50.88;99204.22;5024397;27;114891;-79
2023/09/26 09:17:51;;;;;;;;;;;19.30;88.10;;;19.82;50.96;99195.06;5018559;27;124214;-80
2023/09/26 09:20:32;;;;;;;;;;;19.40;88.20;;;19.82;51.08;99192.25;5025349;27;124061;-80
2023/09/26 09:23:05;;;;;;;;;;;19.40;88.40;;;19.88;50.89;99194.78;5022742;27;113646;-80
2023/09/26 09:25:32;;;;;;;;;;;19.40;88.40;;;19.91;51.16;99180.88;5026202;28;113954;-82
2023/09/26 09:27:59;;;;;;;;;;;19.50;88.70;;;20.00;51.17;99177.84;5025399;28;124316;-82
2023/09/26 09:30:26;;;;;;;;;;;19.50;88.70;;;20.06;51.21;99179.19;5020427;28;124225;-82
2023/09/26 09:32:54;;;;;;;;;;;19.50;88.70;;;20.10;51.04;99173.66;5033659;27;112403;-82
2023/09/26 09:35:20;;;;;;;;;;;19.60;88.80;;;20.12;51.04;99183.31;5036360;27;113069;-80
2023/09/26 09:37:50;;;;;;;;;;;19.60;88.70;;;20.16;51.06;99173.00;5025126;27;124547;-77
2023/09/26 09:40:20;;;;;;;;;;;19.70;88.80;;;20.25;51.10;99182.00;5028898;27;124095;-78
2023/09/26 09:42:48;;;;;;;;;;;19.80;88.80;;;20.37;51.11;99174.66;5025775;27;114421;-80
2023/09/26 09:45:15;;;;;;;;;;;19.90;88.70;;;20.45;51.02;99179.22;5018659;27;115591;-77
2023/09/26 09:47:44;;;;;;;;;;;19.90;88.70;;;20.50;50.86;99181.75;5030369;27;124396;-80
2023/09/26 09:50:17;;;;;;;;;;;20.00;88.60;;;20.55;50.54;99177.84;5032373;27;123904;-80
2023/09/26 09:52:45;;;;;;;;;;;20.00;88.50;;;20.60;50.37;99181.16;5060162;27;114617;-78
2023/09/26 09:55:26;;;;;;;;;;;20.10;88.40;;;20.65;50.10;99180.84;5026281;27;113750;-77
2023/09/26 09:57:52;;;;;;;;;;;20.20;88.20;;;20.71;50.14;99170.13;5006491;27;124178;-79
2023/09/26 10:00:24;;;;;;;;;;;20.20;88.00;;;20.76;49.95;99171.84;5016457;27;123546;-80
2023/09/26 10:02:51;;;;;;;;;;;20.20;87.80;;;20.77;49.78;99163.06;5028091;27;115356;-79
2023/09/26 10:05:19;;;;;;;;;;;20.30;87.70;;;20.83;50.16;99164.34;5029519;27;114814;-81
2023/09/26 10:07:46;;;;;;;;;;;20.40;87.70;;;20.88;49.84;99154.81;5080529;27;123935;-79
2023/09/26 10:10:14;;;;;;;;;;;20.40;87.60;;;20.97;49.83;99155.38;5013629;27;123057;-79
2023/09/26 10:12:40;;;;;;;;;;;20.50;87.70;;;21.05;50.12;99157.13;5063262;27;114350;-79
2023/09/26 10:15:16;;;;;;;;;;;20.60;87.60;;;21.13;49.50;99147.63;5028731;27;113122;-79
2023/09/26 10:17:45;;;;;;;;;;;20.60;87.10;;;21.15;49.28;99150.91;5030313;27;124905;-80
2023/09/26 10:20:14;;;;;;;;;;;20.70;87.00;;;21.24;49.59;99147.03;5061837;27;123863;-78
2023/09/26 10:22:43;;;;;;;;;;;20.80;87.00;;;21.31;49.26;99147.16;5027479;27;114272;-79
2023/09/26 10:25:22;;;;;;;;;;;22.50;88.40;;;21.39;48.98;99143.28;5016820;27;113817;-79
2023/09/26 10:27:50;;;;;;;;;;;20.90;86.40;;;21.46;48.93;99146.19;5027427;27;125498;-78
2023/09/26 10:30:19;;;;;;;;;;;20.90;86.30;;;21.54;48.67;99147.13;5044038;27;122978;-78
2023/09/26 10:32:46;;;;;;;;;;;21.00;86.30;;;21.62;48.59;99135.63;5037772;27;112599;-79
2023/09/26 10:35:15;;;;;;;;;;;21.10;86.00;;;21.72;48.42;99138.97;5053427;27;113740;-78
2023/09/26 10:37:44;;;;;;;;;;;21.20;86.00;;;21.82;48.19;99135.53;5037729;27;124716;-79
2023/09/26 10:40:17;;;;;;;;;;;21.30;85.60;;;21.95;47.90;99127.63;5035382;27;123014;-80
2023/09/26 10:42:46;;;;;;;;;;;21.40;85.50;;;22.07;47.86;99124.59;5036046;27;114375;-80
2023/09/26 10:45:15;;;;;;;;;;;21.50;85.10;;;22.19;47.22;99120.75;5032840;27;114175;-79
2023/09/26 10:47:41;;;;;;;;;;;21.60;85.00;;;22.31;46.76;99117.69;5036203;27;123911;-78
2023/09/26 10:50:12;;;;;;;;;;;21.70;84.30;;;22.41;46.77;99119.84;5030066;27;124037;-79
2023/09/26 10:52:47;;;;;;;;;;;21.80;84.00;;;22.53;46.59;99109.50;5036222;27;115705;-79
2023/09/26 10:55:19;;;;;;;;;;;21.90;84.70;;;22.69;46.24;99110.06;5039104;27;114630;-80
2023/09/26 10:57:47;;;;;;;;;;;22.10;83.90;;;22.84;45.96;99109.03;5037853;27;124004;-78
2023/09/26 11:00:17;;;;;;;;;;;22.20;83.20;;;22.97;45.60;99105.94;5029757;27;123747;-79
2023/09/26 11:02:46;;;;;;;;;;;22.30;82.80;;;23.08;45.01;99106.88;5046157;27;113451;-80
2023/09/26 11:05:13;;;;;;;;;;;22.40;81.80;;;23.18;45.04;99100.50;5036408;27;115034;-80
2023/09/26 11:07:41;;;;;;;;;;;22.50;82.00;;;23.33;44.51;99107.06;5041771;27;125960;-80
2023/09/26 11:10:15;;;;;;;;;;;22.60;81.30;;;23.43;44.20;99106.34;5074846;27;123412;-80
2023/09/26 11:12:43;;;;;;;;;;;22.80;80.90;;;23.58;44.22;99101.59;5045513;27;113814;-81